• Join FlightAware (Why Join?)
  • Login
  • US Flag 
12:34AM EDT


 

Airport Tracker/Info


-or-


 

Live Flight TrackerFlight Track Log ✈ UAL571 ✈ 16-Jul-2013 ✈ CYVR - KEWR

Flight Track Log - Related Links

Times and Time Zones

All times are in EDT time to prevent confusion due to time zone crossing. See the UAL571 flight status page for this flight to view local times or setup timezone preferences in your user account.

Time Position Orientation Groundspeed Altitude Reporting Facility
EDT Latitude Longitude Course Direction KTS MPH feet Rate Location/Type
02:53PM 49.1667 -123.2167 104° East 140 161 1,300  Level Vancouver Center
02:54PM 49.1667 -123.2833 270° West 200 230 2,400 1,620 Climbing Vancouver Center
02:55PM 49.1333 -123.3833 243° Southwest 260 299 4,600 2,640 Climbing Vancouver Center
02:56PM 49.0024 -122.7095 111° Southeast  Level FlightAware Approximate
02:56PM 49.0667 -123.4000 189° South 270 311 7,700  Level Vancouver Center
02:57PM 48.9329 -122.5626 99° East  Level FlightAware Approximate
02:57PM 49.0500 -123.2667 101° East 280 322 10,500  Level Vancouver Center
02:58PM 48.9086 -122.3758 117° Southeast  Level FlightAware Approximate
02:58PM 49.0333 -123.1333 101° East 340 391 11,200  Level Vancouver Center
02:59PM 48.8816 -122.1898 104° East  Level FlightAware Approximate
02:59PM 49.0167 -122.9833 100° East 360 414 13,600  Level Vancouver Center
03:00PM 48.9833 -122.8333 109° East 370 426 15,600 1,860 Climbing Vancouver Center
03:01PM 48.9500 -122.6833 109° East 390 449 17,400 1,740 Climbing Vancouver Center
03:02PM 48.9167 -122.5000 105° East 400 460 19,100 1,740 Climbing Vancouver Center
03:03PM 48.9000 -122.3500 100° East 410 472 20,900 1,620 Climbing Vancouver Center
03:04PM 48.8667 -122.1500 104° East 420 483 22,400 1,440 Climbing Vancouver Center
03:05PM 48.8333 -122.0000 109° East 430 495 23,800 1,320 Climbing Vancouver Center
03:06PM 48.8000 -121.8167 105° East 440 506 25,100 1,140 Climbing Vancouver Center
03:07PM 48.8044 -121.7000 87° East 443 510 25,900 1,080 Climbing Seattle Center
03:08PM 48.7667 -121.4775 104° East 457 526 27,100 1,080 Climbing Seattle Center
03:09PM 48.7361 -121.2883 104° East 465 535 28,200 960 Climbing Seattle Center
03:10PM 48.7033 -121.0975 105° East 471 542 29,100 960 Climbing Seattle Center
03:11PM 48.6708 -120.9033 104° East 478 550 30,200 1,080 Climbing Seattle Center
03:12PM 48.6394 -120.7281 105° East 478 550 31,300 1,020 Climbing Seattle Center
03:13PM 48.6022 -120.5200 105° East 478 550 32,300 960 Climbing Seattle Center
03:14PM 48.5656 -120.3033 104° East 478 550 33,300 900 Climbing Seattle Center
03:15PM 48.5306 -120.1106 105° East 478 550 34,200 780 Climbing Seattle Center
03:16PM 48.4956 -119.9183 105° East 477 549 34,900 300 Climbing Seattle Center
03:17PM 48.4606 -119.7253 105° East 478 550 34,900  Level Seattle Center
03:18PM 48.4256 -119.5314 105° East 482 555 35,000  Climbing Seattle Center
03:19PM 48.4086 -119.3297 97° East 486 559 34,900  Descending Seattle Center
03:20PM 48.3925 -119.1253 97° East 492 566 35,000  Climbing Seattle Center
03:22PM 48.3636 -118.7164 96° East 493 567 34,900 -60 Descending Seattle Center
03:23PM 48.3461 -118.5128 97° East 493 567 34,900  Level Seattle Center
03:24PM 48.3269 -118.2661 97° East 495 570 34,900  Level Seattle Center
03:25PM 48.3081 -118.0597 98° East 498 573 35,000  Climbing Seattle Center
03:26PM 48.2903 -117.8542 97° East 498 573 35,000  Level Seattle Center
03:27PM 48.2717 -117.6472 98° East 499 574 35,000  Level Seattle Center
03:29PM 48.2528 -117.4392 98° East 500 575 35,000  Level Seattle Center
03:30PM 48.2333 -117.2328 98° East 500 575 35,000 -60 Level Seattle Center
03:31PM 48.2147 -117.0272 98° East 498 573 34,900 -60 Descending Seattle Center
03:32PM 48.1942 -116.8206 98° East 498 573 34,900  Level Seattle Center
03:33PM 48.1742 -116.6139 98° East 500 575 34,900  Level Seattle Center
03:34PM 48.1558 -116.4072 97° East 500 575 35,000  Climbing Seattle Center
03:35PM 48.1381 -116.2014 97° East 499 574 35,000 -60 Level Seattle Center
03:36PM 48.1186 -115.9964 98° East 498 573 34,900 -60 Descending Seattle Center
03:37PM 48.0992 -115.7922 98° East 497 572 34,900  Level Seattle Center
03:38PM 48.0792 -115.5731 98° East 498 573 34,900  Level Seattle Center
03:39PM 48.0586 -115.3692 99° East 498 573 35,000  Climbing Seattle Center
03:40PM 48.0381 -115.1647 98° East 499 574 35,000  Level Seattle Center
03:40PM 48.0256 -115.0431 99° East 499 574 35,000  Level Salt Lake Center
03:41PM 48.0042 -114.8408 99° East 497 572 35,000  Level Salt Lake Center
03:42PM 47.9781 -114.5978 99° East 498 573 35,000  Level Salt Lake Center
03:43PM 47.9531 -114.4031 101° East 503 579 35,000  Level Salt Lake Center
03:44PM 47.9300 -114.2000 100° East 506 582 35,000  Level Salt Lake Center
03:45PM 47.9069 -114.0006 100° East 500 575 35,000  Level Salt Lake Center
03:46PM 47.8781 -113.7592 100° East 498 573 35,000  Level Salt Lake Center
03:48PM 47.8514 -113.5556 101° East 502 578 35,000  Level Salt Lake Center
03:49PM 47.8253 -113.3542 101° East 500 575 35,000 -60 Level Salt Lake Center
03:50PM 47.8003 -113.1539 100° East 497 572 34,900 -60 Descending Salt Lake Center
03:51PM 47.7742 -112.9519 101° East 498 573 34,900  Level Salt Lake Center
03:52PM 47.7444 -112.7528 102° East 497 572 35,000  Climbing Salt Lake Center
03:53PM 47.7172 -112.5508 101° East 498 573 35,000  Level Salt Lake Center
03:54PM 47.6842 -112.3100 101° East 498 573 35,000 -60 Level Salt Lake Center
03:55PM 47.6564 -112.1028 101° East 496 571 34,900  Descending Salt Lake Center
03:56PM 47.6292 -111.9031 101° East 496 571 35,000  Climbing Salt Lake Center
03:57PM 47.6031 -111.7025 101° East 496 571 35,000  Level Salt Lake Center
03:58PM 47.5775 -111.5008 101° East 499 574 35,000 -60 Level Salt Lake Center
03:59PM 47.5486 -111.3094 103° East 497 572 34,900 -60 Descending Salt Lake Center
04:00PM 47.5153 -111.0697 102° East 497 572 34,900  Level Salt Lake Center
04:01PM 47.4869 -110.8706 102° East 497 572 34,900  Level Salt Lake Center
04:02PM 47.4578 -110.6706 102° East 498 573 35,000  Climbing Salt Lake Center
04:03PM 47.4292 -110.4706 102° East 499 574 35,000  Level Salt Lake Center
04:04PM 47.4000 -110.2703 102° East 500 575 35,000  Level Salt Lake Center
04:05PM 47.3689 -110.0442 101° East 501 577 35,000  Level Salt Lake Center
04:06PM 47.3467 -109.8500 100° East 502 578 35,000  Level Salt Lake Center
04:07PM 47.3203 -109.6228 100° East 504 580 35,000  Level Salt Lake Center
04:08PM 47.2964 -109.4269 100° East 506 582 35,000  Level Salt Lake Center
04:09PM 47.2683 -109.1994 100° East 503 579 35,000  Level Salt Lake Center
04:10PM 47.2447 -109.0058 100° East 503 579 35,000 -60 Level Salt Lake Center
04:11PM 47.2181 -108.8047 101° East 505 581 34,900 -60 Descending Salt Lake Center
04:12PM 47.1928 -108.6025 100° East 505 581 34,900  Level Salt Lake Center
04:13PM 47.1667 -108.4008 101° East 504 580 34,900 300 Level Salt Lake Center
04:15PM 47.1368 -108.1806 101° East  Level FlightAware Approximate
04:15PM 47.1178 -107.9508 101° East 510 587 35,900  Level Salt Lake Center
04:16PM 47.1189 -107.7447 89° East 511 588 36,600 480 Climbing Salt Lake Center
04:17PM 47.1167 -107.5381 91° East 509 586 37,000 120 Climbing Salt Lake Center
04:18PM 47.1042 -107.3356 95° East 505 581 36,900 -60 Descending Salt Lake Center
04:19PM 47.0756 -107.1383 102° East 497 572 36,900  Level Salt Lake Center
04:21PM 47.0358 -106.8994 104° East 497 572 37,000  Climbing Salt Lake Center
04:22PM 47.0053 -106.7008 103° East 499 574 36,900 -60 Descending Salt Lake Center
04:23PM 46.9733 -106.5028 103° East 500 575 36,900  Level Salt Lake Center
04:24PM 46.9369 -106.3075 105° East 499 574 36,900  Level Salt Lake Center
04:25PM 46.8986 -106.1114 106° East 501 577 37,000  Climbing Salt Lake Center
04:26PM 46.8611 -105.9167 106° East 501 577 37,000  Level Salt Lake Center
04:27PM 46.8158 -105.6822 106° East 501 577 37,000 -60 Level Salt Lake Center
04:28PM 46.7778 -105.4903 106° East 499 574 36,900 -60 Descending Salt Lake Center
04:29PM 46.7400 -105.2978 106° East 498 573 36,900  Level Salt Lake Center
04:30PM 46.7019 -105.1056 106° East 497 572 36,900  Level Salt Lake Center
04:31PM 46.6636 -104.9153 106° East 496 571 37,000  Climbing Salt Lake Center
04:32PM 46.6244 -104.7228 106° East 497 572 37,000  Level Salt Lake Center
04:33PM 46.5806 -104.4931 105° East 496 571 37,000  Level Salt Lake Center
04:34PM 46.5500 -104.2975 103° East 497 572 37,000  Level Salt Lake Center
04:35PM 46.5186 -104.1014 103° East 499 574 37,000  Level Salt Lake Center
04:36PM 46.4872 -103.9075 103° East 499 574 37,000 -60 Level Salt Lake Center
04:37PM 46.4547 -103.7131 104° East 499 574 36,900 -120 Descending Salt Lake Center
04:38PM 46.4378 -103.6022 102° East 499 574 36,900 60 Level Minneapolis Center
04:39PM 46.4044 -103.4092 104° East 498 573 37,000  Climbing Minneapolis Center
04:40PM 46.3642 -103.1775 104° East 498 573 37,000  Level Minneapolis Center
04:41PM 46.3314 -102.9858 104° East 496 571 37,000 -60 Level Minneapolis Center
04:42PM 46.2978 -102.7944 104° East 494 568 36,900  Descending Minneapolis Center
04:43PM 46.2639 -102.6033 104° East 494 568 37,000  Climbing Minneapolis Center
04:44PM 46.2219 -102.3775 105° East 490 564 37,000  Level Minneapolis Center
04:45PM 46.1814 -102.1506 104° East 489 563 37,000  Level Minneapolis Center
04:46PM 46.1503 -101.9803 105° East 487 560 37,000  Level Minneapolis Center
04:47PM 46.1086 -101.7572 105° East 482 555 37,000  Level Minneapolis Center
04:48PM 46.0742 -101.5719 105° East 479 551 37,000  Level Minneapolis Center
04:49PM 46.0386 -101.3872 105° East 479 551 37,000  Level Minneapolis Center
04:50PM 46.0042 -101.2017 105° East 479 551 37,000  Level Minneapolis Center
04:51PM 45.9694 -101.0161 105° East 479 551 37,000  Level Minneapolis Center
04:53PM 45.9331 -100.8311 106° East 480 552 37,000  Level Minneapolis Center
04:54PM 45.8897 -100.6092 106° East 480 552 37,000  Level Minneapolis Center
04:55PM 45.8442 -100.3889 106° East 479 551 37,000  Level Minneapolis Center
04:56PM 45.8078 -100.2050 106° East 478 550 37,000  Level Minneapolis Center
04:57PM 45.7708 -100.0225 106° East 477 549 37,000  Level Minneapolis Center
04:58PM 45.7331 -99.8406 107° East 474 545 37,000  Level Minneapolis Center
04:59PM 45.6953 -99.6578 106° East 476 548 37,000  Level Minneapolis Center
05:00PM 45.6572 -99.4750 107° East 476 548 37,000  Level Minneapolis Center
05:01PM 45.6186 -99.2922 107° East 478 550 37,000  Level Minneapolis Center
05:02PM 45.5725 -99.0769 107° East 474 545 37,100  Climbing Minneapolis Center
05:03PM 45.5347 -98.8989 107° East 470 541 37,000 -60 Descending Minneapolis Center
05:04PM 45.4958 -98.7231 107° East 466 536 37,000  Level Minneapolis Center
05:05PM 45.4575 -98.5486 107° East 462 532 37,000  Level Minneapolis Center
05:06PM 45.4189 -98.3736 107° East 462 532 37,000  Level Minneapolis Center
05:07PM 45.3861 -98.1961 105° East 463 533 37,000  Level Minneapolis Center
05:08PM 45.3478 -97.9883 105° East 466 536 37,000  Level Minneapolis Center
05:09PM 45.3136 -97.8114 105° East 466 536 37,000  Level Minneapolis Center
05:10PM 45.2800 -97.6339 105° East 465 535 37,000  Level Minneapolis Center
05:11PM 45.2458 -97.4544 105° East 468 539 37,000  Level Minneapolis Center
05:12PM 45.2119 -97.2778 105° East 467 537 37,000  Level Minneapolis Center
05:13PM 45.1769 -97.0989 105° East 469 540 37,000  Level Minneapolis Center
05:14PM 45.1358 -96.8875 105° East 465 535 37,000  Level Minneapolis Center
05:15PM 45.1011 -96.7117 106° East 464 534 37,000  Level Minneapolis Center
05:17PM 45.0575 -96.5022 106° East 463 533 37,000  Level Minneapolis Center
05:18PM 45.0228 -96.3267 106° East 463 533 37,000  Level Minneapolis Center
05:19PM 44.9886 -96.1525 105° East 459 528 37,000  Level Minneapolis Center
05:20PM 44.9517 -95.9794 107° East 459 528 37,000  Level Minneapolis Center
05:21PM 44.9094 -95.7722 106° East 456 525 37,000  Level Minneapolis Center
05:22PM 44.8733 -95.6006 106° East 457 526 37,000  Level Minneapolis Center
05:23PM 44.8372 -95.4289 106° East 456 525 37,000  Level Minneapolis Center
05:24PM 44.8075 -95.2925 107° East 454 522 37,000  Level Minneapolis Center
05:25PM 44.7636 -95.0875 107° East 455 524 37,000  Level Minneapolis Center
05:26PM 44.7278 -94.9183 107° East 453 521 37,000  Level Minneapolis Center
05:27PM 44.6825 -94.7136 107° East 455 524 37,000  Level Minneapolis Center
05:28PM 44.6469 -94.5611 108° East 458 527 37,000  Level Minneapolis Center
05:29PM 44.6097 -94.3942 107° East 452 520 37,000  Level Minneapolis Center
05:30PM 44.5650 -94.1942 107° East 450 518 37,000  Level Minneapolis Center
05:31PM 44.5197 -93.9944 108° East 450 518 37,000  Level Minneapolis Center
05:32PM 44.4886 -93.8625 108° East 449 517 37,000  Level Minneapolis Center
05:33PM 44.4431 -93.6644 108° East 449 517 37,000  Level Minneapolis Center
05:34PM 44.4050 -93.5017 108° East 446 513 37,000  Level Minneapolis Center
05:35PM 44.3589 -93.3061 108° East 447 514 37,000  Level Minneapolis Center
05:37PM 44.3208 -93.1422 108° East 448 516 37,000  Level Minneapolis Center
05:38PM 44.2756 -92.9475 108° East 445 512 37,000  Level Minneapolis Center
05:39PM 44.2369 -92.7861 108° East 444 511 37,000  Level Minneapolis Center
05:40PM 44.1889 -92.5911 109° East 445 512 37,000  Level Minneapolis Center
05:41PM 44.1500 -92.4275 108° East 448 516 37,000  Level Minneapolis Center
05:42PM 44.1100 -92.2633 109° East 450 518 37,000  Level Minneapolis Center
05:43PM 44.0775 -92.1331 109° East 449 517 37,000  Level Minneapolis Center
05:44PM 44.0375 -91.9703 109° East 447 514 37,000  Level Minneapolis Center
05:45PM 43.9883 -91.7750 109° East 447 514 37,000  Level Minneapolis Center
05:46PM 43.9475 -91.6075 109° East 448 516 37,000  Level Minneapolis Center
05:47PM 43.8836 -91.4261 116° Southeast 442 509 37,000  Level Minneapolis Center
05:48PM 43.8086 -91.2950 128° Southeast 438 504 37,000  Level Minneapolis Center
05:49PM 43.7306 -91.1697 131° Southeast 435 501 37,000  Level Minneapolis Center
05:50PM 43.6528 -91.0444 131° Southeast 433 498 37,000  Level Minneapolis Center
05:51PM 43.5756 -90.9167 130° Southeast 434 499 37,000  Level Minneapolis Center
05:52PM 43.4822 -90.7667 131° Southeast 433 498 37,000  Level Minneapolis Center
05:53PM 43.4122 -90.6314 125° Southeast 440 506 37,000  Level Minneapolis Center
05:54PM 43.3692 -90.4408 107° East 440 506 37,000  Level Minneapolis Center
05:55PM 43.3478 -90.2767 100° East 442 509 37,000  Level Minneapolis Center
05:56PM 43.3236 -90.1069 101° East 439 505 37,000  Level Minneapolis Center
05:57PM 43.3003 -89.9108 99° East 444 511 37,000  Level Minneapolis Center
05:59PM 43.2725 -89.7194 101° East 443 510 37,000  Level Chicago Center
06:00PM 43.2472 -89.5272 100° East 439 505 37,000  Level Chicago Center
06:01PM 43.2242 -89.3628 101° East 440 506 37,000  Level Chicago Center
06:02PM 43.2011 -89.1969 101° East 441 507 37,000  Level Chicago Center
06:03PM 43.1781 -89.0325 101° East 442 509 37,000  Level Chicago Center
06:04PM 43.1542 -88.8697 101° East 440 506 37,000  Level Chicago Center
06:05PM 43.1278 -88.6800 101° East 437 503 37,000  Level Chicago Center
06:06PM 43.1033 -88.5161 101° East 442 509 37,000  Level Chicago Center
06:07PM 43.0803 -88.3519 101° East 443 510 37,000  Level Chicago Center
06:08PM 43.0561 -88.1875 101° East 444 511 37,000  Level Chicago Center
06:09PM 43.0289 -87.9964 101° East 441 507 37,000  Level Chicago Center
06:10PM 43.0031 -87.8328 102° East 443 510 37,000  Level Chicago Center
06:11PM 42.9794 -87.6683 101° East 444 511 37,000  Level Chicago Center
06:12PM 42.9525 -87.5050 103° East 442 509 37,000  Level Chicago Center
06:13PM 42.9272 -87.3400 102° East 441 507 37,000  Level Chicago Center
06:14PM 42.9008 -87.1756 102° East 445 512 37,000  Level Chicago Center
06:15PM 42.8753 -87.0125 102° East 443 510 37,000  Level Chicago Center
06:16PM 42.8439 -86.8150 102° East 447 514 37,000  Level Chicago Center
06:17PM 42.8167 -86.6514 103° East 446 513 37,000  Level Chicago Center
06:18PM 42.7889 -86.4875 103° East 447 514 37,000  Level Chicago Center
06:19PM 42.7625 -86.3242 102° East 447 514 37,000  Level Chicago Center
06:21PM 42.7297 -86.1278 103° East 449 517 37,000  Level Chicago Center
06:22PM 42.7014 -85.9647 103° East 450 518 37,000  Level Chicago Center
06:23PM 42.6744 -85.8022 103° East 448 516 37,000  Level Chicago Center
06:24PM 42.6453 -85.6394 104° East 448 516 37,000  Level Chicago Center
06:25PM 42.6197 -85.4772 102° East 445 512 37,000  Level Chicago Center
06:26PM 42.5856 -85.2847 103° East 442 509 37,000  Level Chicago Center
06:27PM 42.5581 -85.1228 103° East 442 509 37,000  Level Chicago Center
06:28PM 42.5289 -84.9614 104° East 443 510 37,000  Level Chicago Center
06:29PM 42.4989 -84.7997 104° East 443 510 37,000  Level Chicago Center
06:30PM 42.4706 -84.6378 103° East 443 510 37,000  Level Chicago Center
06:31PM 42.4403 -84.4767 104° East 443 510 37,000  Level Chicago Center
06:32PM 42.4114 -84.3378 106° East 438 504 37,000  Level Cleveland Center
06:33PM 42.3811 -84.1731 104° East 438 504 37,000  Level Cleveland Center
06:34PM 42.3508 -84.0111 104° East 438 504 37,000  Level Cleveland Center
06:35PM 42.3200 -83.8492 104° East 438 504 37,000  Level Cleveland Center
06:36PM 42.2889 -83.6961 105° East 433 498 37,000  Level Cleveland Center
06:37PM 42.2542 -83.5064 104° East 438 504 37,000  Level Cleveland Center
06:38PM 42.2225 -83.3506 105° East 443 510 37,000  Level Cleveland Center
06:39PM 42.1911 -83.1811 104° East 438 504 37,000  Level Cleveland Center
06:40PM 42.1592 -83.0231 105° East 443 510 37,000  Level Cleveland Center
06:41PM 42.1250 -82.8592 106° East 443 510 37,000  Level Cleveland Center
06:42PM 42.0967 -82.6986 103° East 438 504 37,000  Level Cleveland Center
06:43PM 42.0642 -82.5381 105° East 443 510 37,000  Level Cleveland Center
06:44PM 42.0272 -82.3778 107° East 443 510 37,000  Level Cleveland Center
06:45PM 41.9942 -82.2175 105° East 443 510 37,000  Level Cleveland Center
06:46PM 41.9692 -82.0717 103° East 437 503 37,000  Level Cleveland Center
06:47PM 41.9356 -81.9089 105° East 443 510 37,000  Level Cleveland Center
06:48PM 41.9103 -81.7411 101° East 448 516 37,000  Level Cleveland Center
06:49PM 41.8911 -81.5567 98° East 454 522 37,000  Level Cleveland Center
06:50PM 41.8781 -81.3836 96° East 454 522 37,000  Level Cleveland Center
06:51PM 41.8622 -81.2161 97° East 454 522 37,000  Level Cleveland Center
06:52PM 41.8464 -81.0486 97° East 454 522 37,000  Level Cleveland Center
06:53PM 41.8303 -80.8814 97° East 454 522 37,000  Level Cleveland Center
06:54PM 41.8139 -80.7142 97° East 449 517 37,000  Level Cleveland Center
06:55PM 41.7975 -80.5636 98° East 454 522 37,000  Level Cleveland Center
06:56PM 41.7806 -80.3967 98° East 454 522 37,000  Level Cleveland Center
06:57PM 41.7656 -80.2297 97° East 454 522 37,000  Level Cleveland Center
06:58PM 41.7483 -80.0572 98° East 460 529 37,000  Level Cleveland Center
06:59PM 41.7306 -79.8903 98° East 460 529 37,000  Level Cleveland Center
07:00PM 41.7128 -79.7208 98° East 460 529 37,000  Level Cleveland Center
07:01PM 41.6947 -79.5569 98° East 460 529 37,000  Level Cleveland Center
07:02PM 41.6767 -79.3878 98° East 460 529 37,000  Level Cleveland Center
07:03PM 41.6581 -79.2214 98° East 460 529 37,000  Level Cleveland Center
07:04PM 41.6414 -79.0494 97° East 460 529 37,000  Level Cleveland Center
07:05PM 41.6222 -78.8806 99° East 465 535 37,000  Level Cleveland Center
07:06PM 41.6008 -78.7089 99° East 465 535 37,000  Level Cleveland Center
07:07PM 41.5833 -78.5400 98° East 465 535 37,000 -240 Level Cleveland Center
07:08PM 41.5575 -78.3369 100° East 461 531 36,600 -660 Descending New York Center
07:09PM 41.5367 -78.1711 99° East 461 531 35,600 -1,020 Descending New York Center
07:10PM 41.5158 -77.9997 99° East 461 531 34,600 -1,020 Descending New York Center
07:11PM 41.4906 -77.8308 101° East 461 531 33,700 -1,020 Descending New York Center
07:12PM 41.4672 -77.6622 100° East 461 531 32,600 -1,020 Descending New York Center
07:13PM 41.4453 -77.4992 100° East 452 520 31,700 -1,020 Descending New York Center
07:14PM 41.4208 -77.3392 101° East 452 520 30,600 -1,080 Descending New York Center
07:15PM 41.3983 -77.1819 101° East 441 507 29,600 -960 Descending New York Center
07:16PM 41.3733 -77.0247 102° East 435 501 28,700 -1,020 Descending New York Center
07:17PM 41.3500 -76.8706 101° East 435 501 27,700 -1,080 Descending New York Center
07:18PM 41.3222 -76.7217 104° East 429 494 26,600 -1,620 Descending New York Center
07:19PM 41.2814 -76.5772 111° Southeast 417 480 24,400 -2,640 Descending New York Center
07:20PM 41.2408 -76.4272 110° East 417 480 21,300 -2,700 Descending New York Center
07:21PM 41.2019 -76.2808 109° East 422 486 19,100 -1,680 Descending New York Center
07:22PM 41.1683 -76.1511 109° East 417 480 18,000 -600 Descending New York Center
07:23PM 41.1308 -76.0106 109° East 411 473 18,000 -1,260 Level New York Center
07:24PM 41.0878 -75.8528 110° East 411 473 15,600 -2,220 Descending New York Center
07:25PM 41.0517 -75.7208 110° East 405 466 13,600 -1,260 Descending New York Center
07:26PM 41.0192 -75.6003 110° East 386 444 13,100 -960 Descending New York Center
07:27PM 40.9789 -75.4600 111° Southeast 373 429 11,800 -1,380 Descending New York Center
07:28PM 40.9458 -75.3506 112° Southeast 373 429 10,500 -1,140 Descending New York Center
07:29PM 40.9150 -75.2303 109° East 328 377 9,600 -1,200 Descending New York Center
07:30PM 40.8853 -75.1297 111° Southeast 302 348 8,100 -1,380 Descending New York Center
07:31PM 40.8578 -75.0319 110° East 290 334 6,900 -1,080 Descending New York Center
07:32PM 40.8253 -74.9503 118° Southeast 285 328 6,000 -480 Descending New York Center
07:33PM 40.7808 -74.8461 119° Southeast 285 328 6,000  Level New York Center
07:34PM 40.7439 -74.7700 123° Southeast 285 328 6,000 -120 Level New York Center
07:35PM 40.6994 -74.6689 120° Southeast 285 328 5,800 -300 Descending New York Center
07:36PM 40.6622 -74.5903 122° Southeast 285 328 5,400 -420 Descending New York Center
07:37PM 40.6153 -74.4944 123° Southeast 279 321 5,000 -540 Descending New York Center
07:38PM 40.5667 -74.4000 124° Southeast 261 300 4,300 -900 Descending New York TRACON
07:39PM 40.5333 -74.3167 118° Southeast 256 295 3,100 -720 Descending New York TRACON
07:40PM 40.5500 -74.2500 72° East 189 217 2,900 -240 Descending New York TRACON